Van Buren, IN (46991)

10:58 PM EDT on August 24, 2016 (GMT -0400)
South Huntington County | | Change Station

Elev 853 ft 40.66 °N, 85.51 °W | Updated 48 seconds ago

Scattered Clouds
Scattered Clouds
74.7 °F
Feels Like 72 °F
N
1.8
Wind Variable Wind from SW
Gusts 2.5 mph

Today
High -- | Low -- °F
--% Chance of Precip.
Yesterday
High -- | Low -- °F
Precip. -- in
Pressure 30.03 in
Visibility 7.0 miles
Clouds Scattered Clouds 3200 ft
Scattered Clouds 4100 ft
Heat Index 72 °F
Dew Point 74 °F
Humidity 98%
Rainfall 0.83 in
Snow Depth Not available.
7:01 AM 8:25 PM
Waning Gibbous, 50% visible
METAR KMZZ 250235Z AUTO 00000KT 7SM SCT032 SCT041 23/22 A3003 RMK AO2 T02250221
Pressure 30.03 in
Visibility 7.0 miles
Clouds Scattered Clouds 3200 ft
Scattered Clouds 4100 ft
Heat Index 72 °F
Dew Point 74 °F
Humidity 98%
Rainfall 0.83 in
Snow Depth Not available.
7:01 AM 8:25 PM
Waning Gibbous, 50% visible
METAR KMZZ 250235Z AUTO 00000KT 7SM SCT032 SCT041 23/22 A3003 RMK AO2 T02250221

10-Day Weather Forecast

Almanac

Astronomy

Aug. 24, 2016 Rise Set
Actual Time
Civil Twilight
Nautical Twilight
Astronomical Twilight
Moon
Length of Visible Light
Length of Day
Tomorrow will be .
, % of the Moon is Illuminated

Today's Extremes

State Highs State Lows

Community

WunderPhotos

Upload Photos

1,934,779 photos uploaded!

WunderBlog® & News

Nearby

Air Quality

  Air Quality AQ Index Pollutant
Not available.

Snow Depth

Station Depth Elevation

Earthquake Activity

City Distance Mag. Time & Date
Minimum magnitude displayed is 2.5.

Coastal Water Temperatures

Place Temperature

Stations

Nearby Weather Stations

Station Location Temp. Windchill Dew Point Humidity Wind Precip. Elev Updated Type
                   

Watches & Warnings

There are currently no watches in effect.